sensor_id;sensor_type;location;lat;lon;timestamp;P1;durP1;ratioP1;P2;durP2;ratioP2
37323;SDS011;23205;49.986;18.950;2022-10-22T00:01:18;20.15;;;10.15;;
37323;SDS011;23205;49.986;18.950;2022-10-22T00:06:19;19.63;;;10.40;;
37323;SDS011;23205;49.986;18.950;2022-10-22T00:11:20;28.35;;;13.07;;
37323;SDS011;23205;49.986;18.950;2022-10-22T00:16:21;28.50;;;15.65;;
37323;SDS011;23205;49.986;18.950;2022-10-22T00:21:21;20.20;;;11.55;;
37323;SDS011;23205;49.986;18.950;2022-10-22T00:26:23;22.20;;;10.77;;
37323;SDS011;23205;49.986;18.950;2022-10-22T00:31:23;24.65;;;12.65;;
37323;SDS011;23205;49.986;18.950;2022-10-22T00:36:24;25.33;;;13.07;;
37323;SDS011;23205;49.986;18.950;2022-10-22T00:41:25;25.58;;;13.77;;
37323;SDS011;23205;49.986;18.950;2022-10-22T00:46:26;24.50;;;12.38;;
37323;SDS011;23205;49.986;18.950;2022-10-22T00:51:28;29.35;;;14.38;;
37323;SDS011;23205;49.986;18.950;2022-10-22T00:56:32;35.50;;;16.75;;
37323;SDS011;23205;49.986;18.950;2022-10-22T01:01:33;31.67;;;16.27;;
37323;SDS011;23205;49.986;18.950;2022-10-22T01:06:34;24.20;;;11.82;;
37323;SDS011;23205;49.986;18.950;2022-10-22T01:27:57;22.63;;;11.15;;
37323;SDS011;23205;49.986;18.950;2022-10-22T01:33:09;24.33;;;12.52;;
37323;SDS011;23205;49.986;18.950;2022-10-22T01:38:16;27.15;;;14.43;;
37323;SDS011;23205;49.986;18.950;2022-10-22T01:43:19;29.50;;;13.95;;
37323;SDS011;23205;49.986;18.950;2022-10-22T01:53:44;19.23;;;8.77;;
37323;SDS011;23205;49.986;18.950;2022-10-22T02:04:54;17.40;;;8.80;;
37323;SDS011;23205;49.986;18.950;2022-10-22T02:10:02;21.90;;;9.27;;
37323;SDS011;23205;49.986;18.950;2022-10-22T02:15:04;20.02;;;8.63;;
37323;SDS011;23205;49.986;18.950;2022-10-22T02:20:11;16.35;;;7.78;;
37323;SDS011;23205;49.986;18.950;2022-10-22T02:25:22;20.58;;;8.65;;
37323;SDS011;23205;49.986;18.950;2022-10-22T02:30:27;14.00;;;7.78;;
37323;SDS011;23205;49.986;18.950;2022-10-22T02:35:28;15.20;;;7.30;;
37323;SDS011;23205;49.986;18.950;2022-10-22T02:40:30;15.52;;;8.98;;
37323;SDS011;23205;49.986;18.950;2022-10-22T02:45:31;20.45;;;7.65;;
37323;SDS011;23205;49.986;18.950;2022-10-22T02:50:33;19.33;;;8.30;;
37323;SDS011;23205;49.986;18.950;2022-10-22T02:55:34;17.45;;;8.27;;
37323;SDS011;23205;49.986;18.950;2022-10-22T03:00:35;17.77;;;8.02;;
37323;SDS011;23205;49.986;18.950;2022-10-22T03:05:35;17.30;;;8.38;;
37323;SDS011;23205;49.986;18.950;2022-10-22T03:10:36;17.52;;;8.00;;
37323;SDS011;23205;49.986;18.950;2022-10-22T03:15:37;16.30;;;7.90;;
37323;SDS011;23205;49.986;18.950;2022-10-22T03:20:38;17.77;;;7.90;;
37323;SDS011;23205;49.986;18.950;2022-10-22T03:25:38;19.27;;;9.15;;
37323;SDS011;23205;49.986;18.950;2022-10-22T03:30:42;15.77;;;8.13;;
37323;SDS011;23205;49.986;18.950;2022-10-22T03:35:43;19.77;;;8.32;;
37323;SDS011;23205;49.986;18.950;2022-10-22T03:40:45;16.42;;;8.13;;
37323;SDS011;23205;49.986;18.950;2022-10-22T03:45:47;20.02;;;10.10;;
37323;SDS011;23205;49.986;18.950;2022-10-22T03:50:48;20.98;;;11.23;;
37323;SDS011;23205;49.986;18.950;2022-10-22T03:55:49;26.48;;;12.98;;
37323;SDS011;23205;49.986;18.950;2022-10-22T04:00:49;25.52;;;11.93;;
37323;SDS011;23205;49.986;18.950;2022-10-22T04:05:50;25.98;;;11.02;;
37323;SDS011;23205;49.986;18.950;2022-10-22T04:10:51;21.67;;;9.77;;
37323;SDS011;23205;49.986;18.950;2022-10-22T04:15:51;21.02;;;9.30;;
37323;SDS011;23205;49.986;18.950;2022-10-22T04:20:52;17.85;;;9.27;;
37323;SDS011;23205;49.986;18.950;2022-10-22T04:26:00;17.50;;;9.18;;
37323;SDS011;23205;49.986;18.950;2022-10-22T04:31:07;18.17;;;9.70;;
37323;SDS011;23205;49.986;18.950;2022-10-22T04:36:09;18.77;;;9.07;;
37323;SDS011;23205;49.986;18.950;2022-10-22T04:41:18;17.25;;;7.72;;
37323;SDS011;23205;49.986;18.950;2022-10-22T04:46:20;14.95;;;8.18;;
37323;SDS011;23205;49.986;18.950;2022-10-22T04:51:22;16.92;;;7.90;;
37323;SDS011;23205;49.986;18.950;2022-10-22T04:56:25;16.30;;;8.45;;
37323;SDS011;23205;49.986;18.950;2022-10-22T05:01:29;17.95;;;8.68;;
37323;SDS011;23205;49.986;18.950;2022-10-22T05:06:31;21.58;;;9.20;;
37323;SDS011;23205;49.986;18.950;2022-10-22T05:11:35;19.67;;;9.68;;
37323;SDS011;23205;49.986;18.950;2022-10-22T05:16:37;18.67;;;9.80;;
37323;SDS011;23205;49.986;18.950;2022-10-22T05:21:38;21.38;;;9.05;;
37323;SDS011;23205;49.986;18.950;2022-10-22T05:26:38;19.55;;;9.68;;
37323;SDS011;23205;49.986;18.950;2022-10-22T05:31:39;18.83;;;9.30;;
37323;SDS011;23205;49.986;18.950;2022-10-22T05:36:40;20.60;;;10.43;;
37323;SDS011;23205;49.986;18.950;2022-10-22T05:41:41;21.50;;;10.18;;
37323;SDS011;23205;49.986;18.950;2022-10-22T05:46:42;23.35;;;11.20;;
37323;SDS011;23205;49.986;18.950;2022-10-22T05:51:43;19.92;;;9.85;;
37323;SDS011;23205;49.986;18.950;2022-10-22T05:56:44;20.25;;;8.27;;
37323;SDS011;23205;49.986;18.950;2022-10-22T06:01:45;19.98;;;9.23;;
37323;SDS011;23205;49.986;18.950;2022-10-22T06:06:46;21.20;;;9.95;;
37323;SDS011;23205;49.986;18.950;2022-10-22T06:11:49;20.95;;;9.60;;
37323;SDS011;23205;49.986;18.950;2022-10-22T06:16:51;18.02;;;9.05;;
37323;SDS011;23205;49.986;18.950;2022-10-22T06:21:52;19.05;;;10.18;;
37323;SDS011;23205;49.986;18.950;2022-10-22T06:26:52;18.65;;;9.55;;
37323;SDS011;23205;49.986;18.950;2022-10-22T06:31:53;23.70;;;10.25;;
37323;SDS011;23205;49.986;18.950;2022-10-22T06:36:54;18.13;;;9.18;;
37323;SDS011;23205;49.986;18.950;2022-10-22T06:41:55;20.73;;;9.45;;
37323;SDS011;23205;49.986;18.950;2022-10-22T06:46:55;17.73;;;9.00;;
37323;SDS011;23205;49.986;18.950;2022-10-22T06:51:56;16.35;;;7.70;;
37323;SDS011;23205;49.986;18.950;2022-10-22T06:56:57;18.52;;;8.00;;
37323;SDS011;23205;49.986;18.950;2022-10-22T07:01:58;21.27;;;9.23;;
37323;SDS011;23205;49.986;18.950;2022-10-22T07:06:59;24.30;;;8.65;;
37323;SDS011;23205;49.986;18.950;2022-10-22T07:12:00;24.90;;;10.10;;
37323;SDS011;23205;49.986;18.950;2022-10-22T07:17:01;14.45;;;7.28;;
37323;SDS011;23205;49.986;18.950;2022-10-22T07:22:02;17.73;;;9.13;;
37323;SDS011;23205;49.986;18.950;2022-10-22T07:27:02;15.80;;;8.55;;
37323;SDS011;23205;49.986;18.950;2022-10-22T07:32:03;18.25;;;7.78;;
37323;SDS011;23205;49.986;18.950;2022-10-22T07:37:04;18.13;;;8.98;;
37323;SDS011;23205;49.986;18.950;2022-10-22T07:42:05;17.17;;;9.65;;
37323;SDS011;23205;49.986;18.950;2022-10-22T07:47:06;20.17;;;9.63;;
37323;SDS011;23205;49.986;18.950;2022-10-22T07:52:07;17.35;;;9.35;;
37323;SDS011;23205;49.986;18.950;2022-10-22T07:57:07;20.05;;;9.00;;
37323;SDS011;23205;49.986;18.950;2022-10-22T08:02:09;18.45;;;9.93;;
37323;SDS011;23205;49.986;18.950;2022-10-22T08:07:11;20.27;;;9.48;;
37323;SDS011;23205;49.986;18.950;2022-10-22T08:12:12;19.00;;;9.85;;
37323;SDS011;23205;49.986;18.950;2022-10-22T08:17:13;19.38;;;10.38;;
37323;SDS011;23205;49.986;18.950;2022-10-22T08:22:14;21.25;;;10.32;;
37323;SDS011;23205;49.986;18.950;2022-10-22T08:27:15;23.00;;;10.82;;
37323;SDS011;23205;49.986;18.950;2022-10-22T08:32:16;21.65;;;9.98;;
37323;SDS011;23205;49.986;18.950;2022-10-22T08:37:16;22.58;;;10.10;;
37323;SDS011;23205;49.986;18.950;2022-10-22T08:52:40;42.83;;;11.93;;
37323;SDS011;23205;49.986;18.950;2022-10-22T09:03:35;22.42;;;11.02;;
37323;SDS011;23205;49.986;18.950;2022-10-22T09:08:41;23.40;;;10.50;;
37323;SDS011;23205;49.986;18.950;2022-10-22T09:13:44;26.60;;;11.43;;
37323;SDS011;23205;49.986;18.950;2022-10-22T09:29:17;20.88;;;9.82;;
37323;SDS011;23205;49.986;18.950;2022-10-22T09:34:22;19.80;;;9.88;;
37323;SDS011;23205;49.986;18.950;2022-10-22T09:39:23;19.67;;;9.85;;
37323;SDS011;23205;49.986;18.950;2022-10-22T09:44:27;19.48;;;9.02;;
37323;SDS011;23205;49.986;18.950;2022-10-22T09:49:28;21.08;;;10.63;;
37323;SDS011;23205;49.986;18.950;2022-10-22T09:59:41;23.58;;;10.52;;
37323;SDS011;23205;49.986;18.950;2022-10-22T10:04:50;24.65;;;10.50;;
37323;SDS011;23205;49.986;18.950;2022-10-22T10:09:53;25.15;;;10.00;;
37323;SDS011;23205;49.986;18.950;2022-10-22T10:20:23;21.30;;;10.40;;
37323;SDS011;23205;49.986;18.950;2022-10-22T10:25:40;19.90;;;10.40;;
37323;SDS011;23205;49.986;18.950;2022-10-22T11:07:46;23.27;;;12.32;;
37323;SDS011;23205;49.986;18.950;2022-10-22T11:12:51;23.15;;;12.35;;
37323;SDS011;23205;49.986;18.950;2022-10-22T11:18:01;22.60;;;12.82;;
37323;SDS011;23205;49.986;18.950;2022-10-22T11:23:29;23.13;;;12.45;;
37323;SDS011;23205;49.986;18.950;2022-10-22T11:28:36;25.20;;;12.77;;
37323;SDS011;23205;49.986;18.950;2022-10-22T11:33:47;25.70;;;12.60;;
37323;SDS011;23205;49.986;18.950;2022-10-22T11:38:53;24.70;;;13.63;;
37323;SDS011;23205;49.986;18.950;2022-10-22T11:49:27;26.70;;;14.60;;
37323;SDS011;23205;49.986;18.950;2022-10-22T11:54:45;29.55;;;14.23;;
37323;SDS011;23205;49.986;18.950;2022-10-22T12:04:51;33.20;;;16.58;;
37323;SDS011;23205;49.986;18.950;2022-10-22T12:09:51;28.17;;;14.90;;
37323;SDS011;23205;49.986;18.950;2022-10-22T12:14:53;23.52;;;12.90;;
37323;SDS011;23205;49.986;18.950;2022-10-22T12:20:00;26.15;;;13.38;;
37323;SDS011;23205;49.986;18.950;2022-10-22T12:25:23;25.25;;;13.20;;
37323;SDS011;23205;49.986;18.950;2022-10-22T12:30:34;25.42;;;14.07;;
37323;SDS011;23205;49.986;18.950;2022-10-22T12:40:45;27.67;;;14.32;;
37323;SDS011;23205;49.986;18.950;2022-10-22T12:45:47;26.38;;;13.38;;
37323;SDS011;23205;49.986;18.950;2022-10-22T12:50:51;27.95;;;14.95;;
37323;SDS011;23205;49.986;18.950;2022-10-22T12:56:01;29.83;;;14.15;;
37323;SDS011;23205;49.986;18.950;2022-10-22T13:01:04;26.60;;;14.40;;
37323;SDS011;23205;49.986;18.950;2022-10-22T13:11:12;30.30;;;16.00;;
37323;SDS011;23205;49.986;18.950;2022-10-22T13:21:32;32.88;;;15.73;;
37323;SDS011;23205;49.986;18.950;2022-10-22T13:26:36;28.73;;;16.17;;
37323;SDS011;23205;49.986;18.950;2022-10-22T13:31:43;37.78;;;18.33;;
37323;SDS011;23205;49.986;18.950;2022-10-22T13:36:45;34.25;;;18.55;;
37323;SDS011;23205;49.986;18.950;2022-10-22T13:41:46;30.70;;;17.77;;
37323;SDS011;23205;49.986;18.950;2022-10-22T13:46:51;37.33;;;18.30;;
37323;SDS011;23205;49.986;18.950;2022-10-22T13:51:51;34.50;;;18.45;;
37323;SDS011;23205;49.986;18.950;2022-10-22T13:56:52;33.78;;;18.55;;
37323;SDS011;23205;49.986;18.950;2022-10-22T14:01:53;43.15;;;22.48;;
37323;SDS011;23205;49.986;18.950;2022-10-22T14:06:56;37.50;;;19.77;;
37323;SDS011;23205;49.986;18.950;2022-10-22T14:11:56;38.05;;;20.77;;
37323;SDS011;23205;49.986;18.950;2022-10-22T14:16:57;47.65;;;24.05;;
37323;SDS011;23205;49.986;18.950;2022-10-22T14:21:58;44.97;;;23.92;;
37323;SDS011;23205;49.986;18.950;2022-10-22T14:26:59;46.33;;;23.80;;
37323;SDS011;23205;49.986;18.950;2022-10-22T14:31:59;47.78;;;27.35;;
37323;SDS011;23205;49.986;18.950;2022-10-22T14:37:00;45.92;;;26.70;;
37323;SDS011;23205;49.986;18.950;2022-10-22T14:42:01;51.33;;;28.10;;
37323;SDS011;23205;49.986;18.950;2022-10-22T14:47:02;40.97;;;23.23;;
37323;SDS011;23205;49.986;18.950;2022-10-22T14:52:03;47.92;;;23.75;;
37323;SDS011;23205;49.986;18.950;2022-10-22T14:57:03;44.25;;;24.52;;
37323;SDS011;23205;49.986;18.950;2022-10-22T15:02:04;45.17;;;24.27;;
37323;SDS011;23205;49.986;18.950;2022-10-22T15:07:05;46.50;;;25.02;;
37323;SDS011;23205;49.986;18.950;2022-10-22T15:12:06;44.85;;;25.48;;
37323;SDS011;23205;49.986;18.950;2022-10-22T15:17:07;44.08;;;25.25;;
37323;SDS011;23205;49.986;18.950;2022-10-22T15:22:11;46.80;;;26.75;;
37323;SDS011;23205;49.986;18.950;2022-10-22T15:27:12;46.72;;;25.02;;
37323;SDS011;23205;49.986;18.950;2022-10-22T15:32:13;43.88;;;23.92;;
37323;SDS011;23205;49.986;18.950;2022-10-22T15:37:14;44.30;;;24.40;;
37323;SDS011;23205;49.986;18.950;2022-10-22T15:42:15;43.80;;;24.25;;
37323;SDS011;23205;49.986;18.950;2022-10-22T15:47:15;41.72;;;24.00;;
37323;SDS011;23205;49.986;18.950;2022-10-22T15:52:16;47.80;;;24.73;;
37323;SDS011;23205;49.986;18.950;2022-10-22T15:57:17;40.72;;;24.15;;
37323;SDS011;23205;49.986;18.950;2022-10-22T16:02:18;47.63;;;25.25;;
37323;SDS011;23205;49.986;18.950;2022-10-22T16:07:18;40.45;;;23.33;;
37323;SDS011;23205;49.986;18.950;2022-10-22T16:12:19;47.92;;;25.65;;
37323;SDS011;23205;49.986;18.950;2022-10-22T16:17:20;44.90;;;25.77;;
37323;SDS011;23205;49.986;18.950;2022-10-22T16:22:21;45.65;;;25.15;;
37323;SDS011;23205;49.986;18.950;2022-10-22T16:27:21;44.20;;;22.73;;
37323;SDS011;23205;49.986;18.950;2022-10-22T16:32:22;40.95;;;23.83;;
37323;SDS011;23205;49.986;18.950;2022-10-22T16:37:23;49.50;;;25.30;;
37323;SDS011;23205;49.986;18.950;2022-10-22T16:42:24;42.25;;;23.63;;
37323;SDS011;23205;49.986;18.950;2022-10-22T16:47:25;39.55;;;23.10;;
37323;SDS011;23205;49.986;18.950;2022-10-22T16:52:25;44.20;;;24.02;;
37323;SDS011;23205;49.986;18.950;2022-10-22T16:57:27;44.35;;;25.33;;
37323;SDS011;23205;49.986;18.950;2022-10-22T17:02:28;46.08;;;25.63;;
37323;SDS011;23205;49.986;18.950;2022-10-22T17:07:28;44.00;;;24.92;;
37323;SDS011;23205;49.986;18.950;2022-10-22T17:12:29;41.13;;;23.85;;
37323;SDS011;23205;49.986;18.950;2022-10-22T17:17:34;47.65;;;25.75;;
37323;SDS011;23205;49.986;18.950;2022-10-22T17:22:35;42.03;;;23.85;;
37323;SDS011;23205;49.986;18.950;2022-10-22T17:27:35;42.60;;;22.83;;
37323;SDS011;23205;49.986;18.950;2022-10-22T17:32:37;45.95;;;24.60;;
37323;SDS011;23205;49.986;18.950;2022-10-22T17:37:38;43.78;;;25.40;;
37323;SDS011;23205;49.986;18.950;2022-10-22T17:42:39;42.88;;;23.23;;
37323;SDS011;23205;49.986;18.950;2022-10-22T17:47:39;40.78;;;24.13;;
37323;SDS011;23205;49.986;18.950;2022-10-22T17:52:40;43.17;;;24.75;;
37323;SDS011;23205;49.986;18.950;2022-10-22T17:57:41;45.83;;;26.73;;
37323;SDS011;23205;49.986;18.950;2022-10-22T18:02:42;49.13;;;25.48;;
37323;SDS011;23205;49.986;18.950;2022-10-22T18:07:43;49.38;;;27.42;;
37323;SDS011;23205;49.986;18.950;2022-10-22T18:12:44;43.45;;;26.15;;
37323;SDS011;23205;49.986;18.950;2022-10-22T18:17:45;49.40;;;26.05;;
37323;SDS011;23205;49.986;18.950;2022-10-22T18:22:47;49.22;;;26.10;;
37323;SDS011;23205;49.986;18.950;2022-10-22T18:27:48;48.65;;;25.65;;
37323;SDS011;23205;49.986;18.950;2022-10-22T18:32:48;46.40;;;25.50;;
37323;SDS011;23205;49.986;18.950;2022-10-22T18:37:50;48.05;;;27.30;;
37323;SDS011;23205;49.986;18.950;2022-10-22T18:42:51;49.40;;;26.05;;
37323;SDS011;23205;49.986;18.950;2022-10-22T18:47:52;53.50;;;26.77;;
37323;SDS011;23205;49.986;18.950;2022-10-22T18:52:53;51.80;;;26.98;;
37323;SDS011;23205;49.986;18.950;2022-10-22T18:57:54;51.55;;;28.38;;
37323;SDS011;23205;49.986;18.950;2022-10-22T19:02:54;50.72;;;27.75;;
37323;SDS011;23205;49.986;18.950;2022-10-22T19:07:55;51.25;;;25.85;;
37323;SDS011;23205;49.986;18.950;2022-10-22T19:12:56;54.30;;;27.00;;
37323;SDS011;23205;49.986;18.950;2022-10-22T19:17:57;42.35;;;24.10;;
37323;SDS011;23205;49.986;18.950;2022-10-22T19:22:58;51.00;;;26.77;;
37323;SDS011;23205;49.986;18.950;2022-10-22T19:27:59;50.85;;;25.63;;
37323;SDS011;23205;49.986;18.950;2022-10-22T19:33:00;45.88;;;25.13;;
37323;SDS011;23205;49.986;18.950;2022-10-22T19:38:01;47.22;;;25.20;;
37323;SDS011;23205;49.986;18.950;2022-10-22T19:43:02;47.05;;;25.08;;
37323;SDS011;23205;49.986;18.950;2022-10-22T19:48:02;46.85;;;26.40;;
37323;SDS011;23205;49.986;18.950;2022-10-22T19:53:03;45.92;;;24.20;;
37323;SDS011;23205;49.986;18.950;2022-10-22T19:58:04;45.13;;;24.25;;
37323;SDS011;23205;49.986;18.950;2022-10-22T20:03:05;48.42;;;23.67;;
37323;SDS011;23205;49.986;18.950;2022-10-22T20:08:05;48.78;;;24.27;;
37323;SDS011;23205;49.986;18.950;2022-10-22T20:13:06;46.35;;;23.98;;
37323;SDS011;23205;49.986;18.950;2022-10-22T20:18:07;47.08;;;25.05;;
37323;SDS011;23205;49.986;18.950;2022-10-22T20:23:08;48.72;;;26.73;;
37323;SDS011;23205;49.986;18.950;2022-10-22T20:28:09;48.17;;;25.35;;
37323;SDS011;23205;49.986;18.950;2022-10-22T20:33:12;47.42;;;25.92;;
37323;SDS011;23205;49.986;18.950;2022-10-22T20:38:13;47.30;;;25.98;;
37323;SDS011;23205;49.986;18.950;2022-10-22T20:43:14;48.70;;;23.95;;
37323;SDS011;23205;49.986;18.950;2022-10-22T20:48:15;51.20;;;29.00;;
37323;SDS011;23205;49.986;18.950;2022-10-22T20:53:16;50.88;;;26.48;;
37323;SDS011;23205;49.986;18.950;2022-10-22T20:58:17;46.88;;;24.65;;
37323;SDS011;23205;49.986;18.950;2022-10-22T21:03:18;51.17;;;26.65;;
37323;SDS011;23205;49.986;18.950;2022-10-22T21:08:18;48.53;;;24.52;;
37323;SDS011;23205;49.986;18.950;2022-10-22T21:13:19;47.88;;;24.10;;
37323;SDS011;23205;49.986;18.950;2022-10-22T21:18:20;46.42;;;23.83;;
37323;SDS011;23205;49.986;18.950;2022-10-22T21:23:21;42.38;;;22.80;;
37323;SDS011;23205;49.986;18.950;2022-10-22T21:28:21;50.58;;;23.52;;
37323;SDS011;23205;49.986;18.950;2022-10-22T21:33:22;43.78;;;23.10;;
37323;SDS011;23205;49.986;18.950;2022-10-22T21:38:23;40.15;;;21.65;;
37323;SDS011;23205;49.986;18.950;2022-10-22T21:43:24;39.72;;;21.88;;
37323;SDS011;23205;49.986;18.950;2022-10-22T21:48:25;41.63;;;21.77;;
37323;SDS011;23205;49.986;18.950;2022-10-22T21:53:26;36.42;;;19.52;;
37323;SDS011;23205;49.986;18.950;2022-10-22T21:58:26;37.30;;;20.02;;
37323;SDS011;23205;49.986;18.950;2022-10-22T22:03:27;38.10;;;20.25;;
37323;SDS011;23205;49.986;18.950;2022-10-22T22:08:28;36.00;;;20.20;;
37323;SDS011;23205;49.986;18.950;2022-10-22T22:13:29;35.35;;;19.63;;
37323;SDS011;23205;49.986;18.950;2022-10-22T22:18:31;38.75;;;20.75;;
37323;SDS011;23205;49.986;18.950;2022-10-22T22:23:32;37.85;;;20.55;;
37323;SDS011;23205;49.986;18.950;2022-10-22T22:28:39;37.03;;;20.40;;
37323;SDS011;23205;49.986;18.950;2022-10-22T22:33:40;41.90;;;22.20;;
37323;SDS011;23205;49.986;18.950;2022-10-22T22:38:41;39.42;;;21.90;;
37323;SDS011;23205;49.986;18.950;2022-10-22T22:43:42;41.20;;;22.70;;
37323;SDS011;23205;49.986;18.950;2022-10-22T22:48:43;44.80;;;22.55;;
37323;SDS011;23205;49.986;18.950;2022-10-22T22:53:47;44.13;;;22.23;;
37323;SDS011;23205;49.986;18.950;2022-10-22T22:58:48;44.13;;;24.20;;
37323;SDS011;23205;49.986;18.950;2022-10-22T23:03:53;41.45;;;21.40;;
37323;SDS011;23205;49.986;18.950;2022-10-22T23:08:56;40.50;;;21.45;;
37323;SDS011;23205;49.986;18.950;2022-10-22T23:13:58;40.42;;;21.55;;
37323;SDS011;23205;49.986;18.950;2022-10-22T23:19:00;42.17;;;20.92;;
37323;SDS011;23205;49.986;18.950;2022-10-22T23:24:03;43.05;;;21.50;;
37323;SDS011;23205;49.986;18.950;2022-10-22T23:29:07;39.58;;;21.25;;
37323;SDS011;23205;49.986;18.950;2022-10-22T23:34:20;37.60;;;20.50;;
37323;SDS011;23205;49.986;18.950;2022-10-22T23:39:24;44.90;;;21.27;;
37323;SDS011;23205;49.986;18.950;2022-10-22T23:44:28;42.00;;;22.92;;
37323;SDS011;23205;49.986;18.950;2022-10-22T23:49:49;37.60;;;19.98;;
37323;SDS011;23205;49.986;18.950;2022-10-22T23:54:50;38.30;;;21.15;;
37323;SDS011;23205;49.986;18.950;2022-10-22T23:59:51;44.80;;;20.83;;
